sensor_id;sensor_type;location;lat;lon;timestamp;P1;durP1;ratioP1;P2;durP2;ratioP2
83769;SDS011;73763;48.936;9.300;2023-12-20T00:00:54;2.97;;;2.50;;
83769;SDS011;73763;48.936;9.300;2023-12-20T00:03:20;3.97;;;2.60;;
83769;SDS011;73763;48.936;9.300;2023-12-20T00:05:46;3.95;;;2.50;;
83769;SDS011;73763;48.936;9.300;2023-12-20T00:08:12;2.58;;;2.17;;
83769;SDS011;73763;48.936;9.300;2023-12-20T00:10:38;3.35;;;2.58;;
83769;SDS011;73763;48.936;9.300;2023-12-20T00:13:03;3.80;;;2.77;;
83769;SDS011;73763;48.936;9.300;2023-12-20T00:15:29;4.85;;;3.30;;
83769;SDS011;73763;48.936;9.300;2023-12-20T00:17:54;6.43;;;3.37;;
83769;SDS011;73763;48.936;9.300;2023-12-20T00:20:20;3.30;;;2.80;;
83769;SDS011;73763;48.936;9.300;2023-12-20T00:22:45;3.65;;;2.92;;
83769;SDS011;73763;48.936;9.300;2023-12-20T00:25:11;3.40;;;2.40;;
83769;SDS011;73763;48.936;9.300;2023-12-20T00:27:36;2.88;;;2.58;;
83769;SDS011;73763;48.936;9.300;2023-12-20T00:30:02;4.93;;;3.60;;
83769;SDS011;73763;48.936;9.300;2023-12-20T00:32:27;5.90;;;4.15;;
83769;SDS011;73763;48.936;9.300;2023-12-20T00:34:53;7.03;;;4.30;;
83769;SDS011;73763;48.936;9.300;2023-12-20T00:37:18;6.75;;;5.07;;
83769;SDS011;73763;48.936;9.300;2023-12-20T00:39:44;6.40;;;4.87;;
83769;SDS011;73763;48.936;9.300;2023-12-20T00:42:09;5.77;;;4.80;;
83769;SDS011;73763;48.936;9.300;2023-12-20T00:44:35;4.93;;;3.97;;
83769;SDS011;73763;48.936;9.300;2023-12-20T00:47:00;5.77;;;4.33;;
83769;SDS011;73763;48.936;9.300;2023-12-20T00:49:26;4.55;;;4.15;;
83769;SDS011;73763;48.936;9.300;2023-12-20T00:51:52;5.70;;;4.30;;
83769;SDS011;73763;48.936;9.300;2023-12-20T00:54:17;6.30;;;4.50;;
83769;SDS011;73763;48.936;9.300;2023-12-20T00:56:43;5.20;;;4.55;;
83769;SDS011;73763;48.936;9.300;2023-12-20T00:59:09;6.40;;;4.97;;
83769;SDS011;73763;48.936;9.300;2023-12-20T01:01:34;8.35;;;6.20;;
83769;SDS011;73763;48.936;9.300;2023-12-20T01:04:00;6.57;;;5.60;;
83769;SDS011;73763;48.936;9.300;2023-12-20T01:06:25;7.30;;;5.28;;
83769;SDS011;73763;48.936;9.300;2023-12-20T01:08:51;7.10;;;5.60;;
83769;SDS011;73763;48.936;9.300;2023-12-20T01:11:16;7.07;;;5.65;;
83769;SDS011;73763;48.936;9.300;2023-12-20T01:13:42;6.03;;;5.43;;
83769;SDS011;73763;48.936;9.300;2023-12-20T01:16:09;6.82;;;5.53;;
83769;SDS011;73763;48.936;9.300;2023-12-20T01:18:35;8.88;;;7.40;;
83769;SDS011;73763;48.936;9.300;2023-12-20T01:21:02;9.67;;;6.80;;
83769;SDS011;73763;48.936;9.300;2023-12-20T01:23:28;7.53;;;6.22;;
83769;SDS011;73763;48.936;9.300;2023-12-20T01:25:53;9.47;;;7.00;;
83769;SDS011;73763;48.936;9.300;2023-12-20T01:28:19;7.13;;;6.40;;
83769;SDS011;73763;48.936;9.300;2023-12-20T01:30:44;7.07;;;6.07;;
83769;SDS011;73763;48.936;9.300;2023-12-20T01:33:10;7.87;;;6.30;;
83769;SDS011;73763;48.936;9.300;2023-12-20T01:35:35;8.88;;;7.47;;
83769;SDS011;73763;48.936;9.300;2023-12-20T01:38:01;9.80;;;8.17;;
83769;SDS011;73763;48.936;9.300;2023-12-20T01:40:26;9.85;;;7.47;;
83769;SDS011;73763;48.936;9.300;2023-12-20T01:45:43;8.68;;;7.78;;
83769;SDS011;73763;48.936;9.300;2023-12-20T01:48:10;8.43;;;7.53;;
83769;SDS011;73763;48.936;9.300;2023-12-20T01:50:36;8.63;;;7.60;;
83769;SDS011;73763;48.936;9.300;2023-12-20T01:53:02;11.30;;;7.60;;
83769;SDS011;73763;48.936;9.300;2023-12-20T01:55:31;8.50;;;6.97;;
83769;SDS011;73763;48.936;9.300;2023-12-20T01:57:59;9.68;;;7.97;;
83769;SDS011;73763;48.936;9.300;2023-12-20T02:00:26;8.63;;;7.60;;
83769;SDS011;73763;48.936;9.300;2023-12-20T02:02:54;9.52;;;7.50;;
83769;SDS011;73763;48.936;9.300;2023-12-20T02:05:19;10.10;;;8.23;;
83769;SDS011;73763;48.936;9.300;2023-12-20T02:07:46;8.23;;;7.40;;
83769;SDS011;73763;48.936;9.300;2023-12-20T02:10:11;10.70;;;8.93;;
83769;SDS011;73763;48.936;9.300;2023-12-20T02:12:37;9.85;;;8.85;;
83769;SDS011;73763;48.936;9.300;2023-12-20T02:15:03;10.07;;;7.90;;
83769;SDS011;73763;48.936;9.300;2023-12-20T02:17:29;9.73;;;8.37;;
83769;SDS011;73763;48.936;9.300;2023-12-20T02:19:56;8.90;;;8.00;;
83769;SDS011;73763;48.936;9.300;2023-12-20T02:22:21;9.68;;;8.68;;
83769;SDS011;73763;48.936;9.300;2023-12-20T02:24:47;9.93;;;8.90;;
83769;SDS011;73763;48.936;9.300;2023-12-20T02:27:12;10.32;;;9.00;;
83769;SDS011;73763;48.936;9.300;2023-12-20T02:29:39;10.48;;;9.32;;
83769;SDS011;73763;48.936;9.300;2023-12-20T02:32:04;11.90;;;9.50;;
83769;SDS011;73763;48.936;9.300;2023-12-20T02:34:30;12.70;;;9.07;;
83769;SDS011;73763;48.936;9.300;2023-12-20T02:36:55;9.13;;;7.93;;
83769;SDS011;73763;48.936;9.300;2023-12-20T02:39:21;8.27;;;7.15;;
83769;SDS011;73763;48.936;9.300;2023-12-20T02:41:47;8.18;;;6.47;;
83769;SDS011;73763;48.936;9.300;2023-12-20T02:44:13;7.95;;;6.90;;
83769;SDS011;73763;48.936;9.300;2023-12-20T02:46:39;6.72;;;5.97;;
83769;SDS011;73763;48.936;9.300;2023-12-20T02:49:05;6.97;;;5.40;;
83769;SDS011;73763;48.936;9.300;2023-12-20T02:51:31;4.95;;;4.45;;
83769;SDS011;73763;48.936;9.300;2023-12-20T02:53:57;5.13;;;3.73;;
83769;SDS011;73763;48.936;9.300;2023-12-20T02:56:22;4.90;;;3.70;;
83769;SDS011;73763;48.936;9.300;2023-12-20T02:58:48;2.93;;;2.63;;
83769;SDS011;73763;48.936;9.300;2023-12-20T03:01:13;2.72;;;2.33;;
83769;SDS011;73763;48.936;9.300;2023-12-20T03:03:39;2.07;;;1.87;;
83769;SDS011;73763;48.936;9.300;2023-12-20T03:06:04;2.78;;;2.00;;
83769;SDS011;73763;48.936;9.300;2023-12-20T03:08:30;1.57;;;1.37;;
83769;SDS011;73763;48.936;9.300;2023-12-20T03:10:55;1.70;;;1.60;;
83769;SDS011;73763;48.936;9.300;2023-12-20T03:13:21;1.30;;;1.10;;
83769;SDS011;73763;48.936;9.300;2023-12-20T03:15:46;1.40;;;1.20;;
83769;SDS011;73763;48.936;9.300;2023-12-20T03:18:12;1.50;;;1.20;;
83769;SDS011;73763;48.936;9.300;2023-12-20T03:20:37;2.73;;;1.20;;
83769;SDS011;73763;48.936;9.300;2023-12-20T03:23:03;1.13;;;1.00;;
83769;SDS011;73763;48.936;9.300;2023-12-20T03:25:29;1.30;;;1.10;;
83769;SDS011;73763;48.936;9.300;2023-12-20T03:27:54;1.20;;;1.10;;
83769;SDS011;73763;48.936;9.300;2023-12-20T03:30:20;1.38;;;1.10;;
83769;SDS011;73763;48.936;9.300;2023-12-20T03:32:46;1.00;;;1.00;;
83769;SDS011;73763;48.936;9.300;2023-12-20T03:35:12;1.33;;;0.97;;
83769;SDS011;73763;48.936;9.300;2023-12-20T03:37:37;0.90;;;0.90;;
83769;SDS011;73763;48.936;9.300;2023-12-20T03:40:03;0.90;;;0.90;;
83769;SDS011;73763;48.936;9.300;2023-12-20T03:42:29;1.27;;;1.08;;
83769;SDS011;73763;48.936;9.300;2023-12-20T03:44:54;1.03;;;0.93;;
83769;SDS011;73763;48.936;9.300;2023-12-20T03:47:20;0.97;;;0.87;;
83769;SDS011;73763;48.936;9.300;2023-12-20T03:49:45;1.33;;;0.90;;
83769;SDS011;73763;48.936;9.300;2023-12-20T03:52:11;1.20;;;0.90;;
83769;SDS011;73763;48.936;9.300;2023-12-20T03:54:36;1.10;;;0.90;;
83769;SDS011;73763;48.936;9.300;2023-12-20T03:57:02;0.90;;;0.90;;
83769;SDS011;73763;48.936;9.300;2023-12-20T03:59:28;1.15;;;0.80;;
83769;SDS011;73763;48.936;9.300;2023-12-20T04:01:53;1.20;;;1.00;;
83769;SDS011;73763;48.936;9.300;2023-12-20T04:04:19;0.90;;;0.80;;
83769;SDS011;73763;48.936;9.300;2023-12-20T04:06:44;1.00;;;0.80;;
83769;SDS011;73763;48.936;9.300;2023-12-20T04:09:10;1.00;;;0.90;;
83769;SDS011;73763;48.936;9.300;2023-12-20T04:11:36;0.83;;;0.83;;
83769;SDS011;73763;48.936;9.300;2023-12-20T04:14:01;0.83;;;0.73;;
83769;SDS011;73763;48.936;9.300;2023-12-20T04:16:27;0.73;;;0.73;;
83769;SDS011;73763;48.936;9.300;2023-12-20T04:18:53;0.97;;;0.80;;
83769;SDS011;73763;48.936;9.300;2023-12-20T04:21:18;1.45;;;1.00;;
83769;SDS011;73763;48.936;9.300;2023-12-20T04:23:44;1.13;;;0.73;;
83769;SDS011;73763;48.936;9.300;2023-12-20T04:26:10;1.58;;;0.98;;
83769;SDS011;73763;48.936;9.300;2023-12-20T04:28:35;1.30;;;1.05;;
83769;SDS011;73763;48.936;9.300;2023-12-20T04:31:01;1.20;;;0.90;;
83769;SDS011;73763;48.936;9.300;2023-12-20T04:33:26;1.20;;;1.00;;
83769;SDS011;73763;48.936;9.300;2023-12-20T04:35:52;0.90;;;0.90;;
83769;SDS011;73763;48.936;9.300;2023-12-20T04:38:18;2.30;;;1.23;;
83769;SDS011;73763;48.936;9.300;2023-12-20T04:40:43;1.10;;;1.00;;
83769;SDS011;73763;48.936;9.300;2023-12-20T04:43:09;1.10;;;1.00;;
83769;SDS011;73763;48.936;9.300;2023-12-20T04:45:34;1.75;;;1.30;;
83769;SDS011;73763;48.936;9.300;2023-12-20T04:48:00;2.50;;;0.90;;
83769;SDS011;73763;48.936;9.300;2023-12-20T04:50:26;1.20;;;1.10;;
83769;SDS011;73763;48.936;9.300;2023-12-20T04:52:52;1.87;;;1.00;;
83769;SDS011;73763;48.936;9.300;2023-12-20T04:55:17;1.10;;;1.00;;
83769;SDS011;73763;48.936;9.300;2023-12-20T04:57:43;1.80;;;1.07;;
83769;SDS011;73763;48.936;9.300;2023-12-20T05:00:09;1.25;;;0.90;;
83769;SDS011;73763;48.936;9.300;2023-12-20T05:02:35;1.10;;;1.00;;
83769;SDS011;73763;48.936;9.300;2023-12-20T05:05:01;1.48;;;1.05;;
83769;SDS011;73763;48.936;9.300;2023-12-20T05:07:27;0.90;;;0.90;;
83769;SDS011;73763;48.936;9.300;2023-12-20T05:09:52;1.60;;;0.90;;
83769;SDS011;73763;48.936;9.300;2023-12-20T05:12:18;1.00;;;0.80;;
83769;SDS011;73763;48.936;9.300;2023-12-20T05:14:43;1.90;;;1.17;;
83769;SDS011;73763;48.936;9.300;2023-12-20T05:17:09;1.20;;;1.10;;
83769;SDS011;73763;48.936;9.300;2023-12-20T05:19:34;1.23;;;1.13;;
83769;SDS011;73763;48.936;9.300;2023-12-20T05:22:00;1.90;;;1.20;;
83769;SDS011;73763;48.936;9.300;2023-12-20T05:24:26;1.40;;;1.10;;
83769;SDS011;73763;48.936;9.300;2023-12-20T05:26:51;1.55;;;1.30;;
83769;SDS011;73763;48.936;9.300;2023-12-20T05:29:17;1.60;;;1.50;;
83769;SDS011;73763;48.936;9.300;2023-12-20T05:31:42;1.45;;;1.35;;
83769;SDS011;73763;48.936;9.300;2023-12-20T05:34:08;1.80;;;1.70;;
83769;SDS011;73763;48.936;9.300;2023-12-20T05:36:33;1.92;;;1.60;;
83769;SDS011;73763;48.936;9.300;2023-12-20T05:38:59;2.10;;;1.90;;
83769;SDS011;73763;48.936;9.300;2023-12-20T05:41:24;1.95;;;1.85;;
83769;SDS011;73763;48.936;9.300;2023-12-20T05:43:50;3.40;;;2.30;;
83769;SDS011;73763;48.936;9.300;2023-12-20T05:46:15;3.30;;;2.38;;
83769;SDS011;73763;48.936;9.300;2023-12-20T05:48:41;3.40;;;2.60;;
83769;SDS011;73763;48.936;9.300;2023-12-20T05:51:06;3.17;;;2.87;;
83769;SDS011;73763;48.936;9.300;2023-12-20T05:53:32;3.53;;;2.73;;
83769;SDS011;73763;48.936;9.300;2023-12-20T05:55:57;3.60;;;3.30;;
83769;SDS011;73763;48.936;9.300;2023-12-20T05:58:23;3.45;;;3.10;;
83769;SDS011;73763;48.936;9.300;2023-12-20T06:00:48;3.93;;;3.30;;
83769;SDS011;73763;48.936;9.300;2023-12-20T06:03:14;3.50;;;3.20;;
83769;SDS011;73763;48.936;9.300;2023-12-20T06:05:39;3.67;;;3.23;;
83769;SDS011;73763;48.936;9.300;2023-12-20T06:08:05;3.60;;;3.30;;
83769;SDS011;73763;48.936;9.300;2023-12-20T06:10:31;4.10;;;3.70;;
83769;SDS011;73763;48.936;9.300;2023-12-20T06:12:56;4.10;;;3.50;;
83769;SDS011;73763;48.936;9.300;2023-12-20T06:15:22;4.63;;;3.47;;
83769;SDS011;73763;48.936;9.300;2023-12-20T06:17:47;4.43;;;3.60;;
83769;SDS011;73763;48.936;9.300;2023-12-20T06:20:13;4.37;;;3.97;;
83769;SDS011;73763;48.936;9.300;2023-12-20T06:22:38;3.97;;;3.58;;
83769;SDS011;73763;48.936;9.300;2023-12-20T06:25:04;4.50;;;4.10;;
83769;SDS011;73763;48.936;9.300;2023-12-20T06:27:30;4.25;;;3.85;;
83769;SDS011;73763;48.936;9.300;2023-12-20T06:29:55;4.70;;;4.00;;
83769;SDS011;73763;48.936;9.300;2023-12-20T06:32:21;4.23;;;3.83;;
83769;SDS011;73763;48.936;9.300;2023-12-20T06:34:46;3.90;;;3.60;;
83769;SDS011;73763;48.936;9.300;2023-12-20T06:37:12;4.30;;;3.90;;
83769;SDS011;73763;48.936;9.300;2023-12-20T06:39:37;7.30;;;5.13;;
83769;SDS011;73763;48.936;9.300;2023-12-20T06:42:03;4.80;;;4.20;;
83769;SDS011;73763;48.936;9.300;2023-12-20T06:44:28;4.90;;;4.50;;
83769;SDS011;73763;48.936;9.300;2023-12-20T06:46:54;4.95;;;4.45;;
83769;SDS011;73763;48.936;9.300;2023-12-20T06:49:19;5.47;;;4.97;;
83769;SDS011;73763;48.936;9.300;2023-12-20T06:51:45;5.80;;;4.93;;
83769;SDS011;73763;48.936;9.300;2023-12-20T06:54:10;6.20;;;5.60;;
83769;SDS011;73763;48.936;9.300;2023-12-20T06:56:36;6.05;;;5.45;;
83769;SDS011;73763;48.936;9.300;2023-12-20T06:59:01;6.00;;;5.40;;
83769;SDS011;73763;48.936;9.300;2023-12-20T07:01:27;5.80;;;5.27;;
83769;SDS011;73763;48.936;9.300;2023-12-20T07:03:52;6.07;;;5.57;;
83769;SDS011;73763;48.936;9.300;2023-12-20T07:06:18;6.43;;;5.83;;
83769;SDS011;73763;48.936;9.300;2023-12-20T07:08:43;6.90;;;5.80;;
83769;SDS011;73763;48.936;9.300;2023-12-20T07:11:09;7.43;;;6.63;;
83769;SDS011;73763;48.936;9.300;2023-12-20T07:13:35;7.47;;;6.72;;
83769;SDS011;73763;48.936;9.300;2023-12-20T07:16:00;7.63;;;6.90;;
83769;SDS011;73763;48.936;9.300;2023-12-20T07:18:25;8.48;;;7.68;;
83769;SDS011;73763;48.936;9.300;2023-12-20T07:20:51;7.87;;;7.17;;
83769;SDS011;73763;48.936;9.300;2023-12-20T07:23:16;7.53;;;6.83;;
83769;SDS011;73763;48.936;9.300;2023-12-20T07:25:42;8.47;;;7.67;;
83769;SDS011;73763;48.936;9.300;2023-12-20T07:28:07;9.17;;;8.33;;
83769;SDS011;73763;48.936;9.300;2023-12-20T07:30:33;13.75;;;12.25;;
83769;SDS011;73763;48.936;9.300;2023-12-20T07:32:58;14.03;;;12.50;;
83769;SDS011;73763;48.936;9.300;2023-12-20T07:35:24;22.00;;;16.42;;
83769;SDS011;73763;48.936;9.300;2023-12-20T07:37:49;12.27;;;10.83;;
83769;SDS011;73763;48.936;9.300;2023-12-20T07:40:15;10.10;;;9.10;;
83769;SDS011;73763;48.936;9.300;2023-12-20T07:42:40;10.07;;;9.07;;
83769;SDS011;73763;48.936;9.300;2023-12-20T07:45:06;11.82;;;10.63;;
83769;SDS011;73763;48.936;9.300;2023-12-20T07:47:32;14.90;;;13.00;;
83769;SDS011;73763;48.936;9.300;2023-12-20T07:49:57;16.48;;;14.55;;
83769;SDS011;73763;48.936;9.300;2023-12-20T07:52:23;9.47;;;8.57;;
83769;SDS011;73763;48.936;9.300;2023-12-20T07:54:48;10.75;;;9.65;;
83769;SDS011;73763;48.936;9.300;2023-12-20T07:57:14;11.47;;;8.93;;
83769;SDS011;73763;48.936;9.300;2023-12-20T07:59:39;33.03;;;22.20;;
83769;SDS011;73763;48.936;9.300;2023-12-20T08:02:05;25.55;;;16.58;;
83769;SDS011;73763;48.936;9.300;2023-12-20T08:04:31;19.00;;;15.07;;
83769;SDS011;73763;48.936;9.300;2023-12-20T08:06:56;13.27;;;10.77;;
83769;SDS011;73763;48.936;9.300;2023-12-20T08:09:22;15.38;;;12.18;;
83769;SDS011;73763;48.936;9.300;2023-12-20T08:11:47;18.73;;;13.70;;
83769;SDS011;73763;48.936;9.300;2023-12-20T08:14:14;23.77;;;17.00;;
83769;SDS011;73763;48.936;9.300;2023-12-20T08:16:40;10.45;;;7.78;;
83769;SDS011;73763;48.936;9.300;2023-12-20T08:19:06;13.55;;;10.93;;
83769;SDS011;73763;48.936;9.300;2023-12-20T08:21:31;12.73;;;9.33;;
83769;SDS011;73763;48.936;9.300;2023-12-20T08:23:57;9.60;;;6.55;;
83769;SDS011;73763;48.936;9.300;2023-12-20T08:26:22;6.53;;;5.70;;
83769;SDS011;73763;48.936;9.300;2023-12-20T08:28:48;7.87;;;6.47;;
83769;SDS011;73763;48.936;9.300;2023-12-20T08:31:14;23.67;;;8.90;;
83769;SDS011;73763;48.936;9.300;2023-12-20T08:33:40;15.23;;;9.25;;
83769;SDS011;73763;48.936;9.300;2023-12-20T08:36:06;11.23;;;6.63;;
83769;SDS011;73763;48.936;9.300;2023-12-20T08:38:31;8.33;;;5.20;;
83769;SDS011;73763;48.936;9.300;2023-12-20T08:40:57;7.27;;;4.43;;
83769;SDS011;73763;48.936;9.300;2023-12-20T08:43:22;16.00;;;10.20;;
83769;SDS011;73763;48.936;9.300;2023-12-20T08:45:48;9.73;;;7.07;;
83769;SDS011;73763;48.936;9.300;2023-12-20T08:48:13;8.23;;;5.47;;
83769;SDS011;73763;48.936;9.300;2023-12-20T08:50:39;6.70;;;5.22;;
83769;SDS011;73763;48.936;9.300;2023-12-20T08:53:04;6.13;;;4.40;;
83769;SDS011;73763;48.936;9.300;2023-12-20T08:55:30;5.90;;;4.63;;
83769;SDS011;73763;48.936;9.300;2023-12-20T08:57:55;8.32;;;6.45;;
83769;SDS011;73763;48.936;9.300;2023-12-20T09:00:21;7.73;;;4.20;;
83769;SDS011;73763;48.936;9.300;2023-12-20T09:02:47;5.53;;;2.80;;
83769;SDS011;73763;48.936;9.300;2023-12-20T09:05:12;2.70;;;2.33;;
83769;SDS011;73763;48.936;9.300;2023-12-20T09:07:38;4.93;;;2.70;;
83769;SDS011;73763;48.936;9.300;2023-12-20T09:10:03;3.65;;;2.30;;
83769;SDS011;73763;48.936;9.300;2023-12-20T09:12:29;4.07;;;2.60;;
83769;SDS011;73763;48.936;9.300;2023-12-20T09:14:54;5.47;;;2.35;;
83769;SDS011;73763;48.936;9.300;2023-12-20T09:17:20;2.90;;;2.00;;
83769;SDS011;73763;48.936;9.300;2023-12-20T09:19:45;5.78;;;2.60;;
83769;SDS011;73763;48.936;9.300;2023-12-20T09:22:11;3.80;;;2.63;;
83769;SDS011;73763;48.936;9.300;2023-12-20T09:24:37;3.75;;;2.70;;
83769;SDS011;73763;48.936;9.300;2023-12-20T09:27:02;5.00;;;2.20;;
83769;SDS011;73763;48.936;9.300;2023-12-20T09:29:28;5.20;;;2.53;;
83769;SDS011;73763;48.936;9.300;2023-12-20T09:31:54;3.83;;;2.33;;
83769;SDS011;73763;48.936;9.300;2023-12-20T09:34:20;5.00;;;2.37;;
83769;SDS011;73763;48.936;9.300;2023-12-20T09:36:45;3.90;;;2.17;;
83769;SDS011;73763;48.936;9.300;2023-12-20T09:39:11;4.67;;;2.10;;
83769;SDS011;73763;48.936;9.300;2023-12-20T09:41:38;4.07;;;2.17;;
83769;SDS011;73763;48.936;9.300;2023-12-20T09:44:08;4.95;;;1.92;;
83769;SDS011;73763;48.936;9.300;2023-12-20T09:46:39;5.10;;;2.60;;
83769;SDS011;73763;48.936;9.300;2023-12-20T09:49:09;3.50;;;2.22;;
83769;SDS011;73763;48.936;9.300;2023-12-20T09:51:36;6.68;;;2.40;;
83769;SDS011;73763;48.936;9.300;2023-12-20T09:54:04;5.68;;;1.88;;
83769;SDS011;73763;48.936;9.300;2023-12-20T09:56:30;5.60;;;2.10;;
83769;SDS011;73763;48.936;9.300;2023-12-20T09:58:56;4.57;;;1.70;;
83769;SDS011;73763;48.936;9.300;2023-12-20T10:01:21;4.50;;;1.80;;
83769;SDS011;73763;48.936;9.300;2023-12-20T10:03:48;4.82;;;1.52;;
83769;SDS011;73763;48.936;9.300;2023-12-20T10:06:16;5.90;;;1.95;;
83769;SDS011;73763;48.936;9.300;2023-12-20T10:08:42;5.85;;;1.95;;
83769;SDS011;73763;48.936;9.300;2023-12-20T10:11:07;6.50;;;1.93;;
83769;SDS011;73763;48.936;9.300;2023-12-20T10:13:33;5.37;;;1.70;;
83769;SDS011;73763;48.936;9.300;2023-12-20T10:15:59;4.95;;;2.05;;
83769;SDS011;73763;48.936;9.300;2023-12-20T10:18:24;6.00;;;1.70;;
83769;SDS011;73763;48.936;9.300;2023-12-20T10:20:50;6.40;;;1.80;;
83769;SDS011;73763;48.936;9.300;2023-12-20T10:23:15;6.50;;;1.80;;
83769;SDS011;73763;48.936;9.300;2023-12-20T10:25:41;7.10;;;1.80;;
83769;SDS011;73763;48.936;9.300;2023-12-20T10:28:14;5.13;;;1.60;;
83769;SDS011;73763;48.936;9.300;2023-12-20T10:30:41;6.35;;;2.28;;
83769;SDS011;73763;48.936;9.300;2023-12-20T10:33:07;4.45;;;1.60;;
83769;SDS011;73763;48.936;9.300;2023-12-20T10:35:33;7.05;;;1.90;;
83769;SDS011;73763;48.936;9.300;2023-12-20T10:38:00;8.63;;;2.00;;
83769;SDS011;73763;48.936;9.300;2023-12-20T10:40:28;5.47;;;1.60;;
83769;SDS011;73763;48.936;9.300;2023-12-20T10:42:54;4.55;;;1.65;;
83769;SDS011;73763;48.936;9.300;2023-12-20T10:45:21;4.90;;;1.63;;
83769;SDS011;73763;48.936;9.300;2023-12-20T10:47:47;5.75;;;1.95;;
83769;SDS011;73763;48.936;9.300;2023-12-20T10:50:15;5.10;;;1.80;;
83769;SDS011;73763;48.936;9.300;2023-12-20T10:52:41;6.43;;;1.50;;
83769;SDS011;73763;48.936;9.300;2023-12-20T10:55:07;6.63;;;1.90;;
83769;SDS011;73763;48.936;9.300;2023-12-20T10:57:33;5.43;;;1.40;;
83769;SDS011;73763;48.936;9.300;2023-12-20T11:00:02;7.10;;;1.70;;
83769;SDS011;73763;48.936;9.300;2023-12-20T11:02:28;6.72;;;1.60;;
83769;SDS011;73763;48.936;9.300;2023-12-20T11:04:59;4.85;;;1.60;;
83769;SDS011;73763;48.936;9.300;2023-12-20T11:10:19;5.85;;;1.92;;
83769;SDS011;73763;48.936;9.300;2023-12-20T11:12:53;6.38;;;1.80;;
83769;SDS011;73763;48.936;9.300;2023-12-20T11:15:25;5.90;;;1.80;;
83769;SDS011;73763;48.936;9.300;2023-12-20T11:17:55;6.20;;;1.75;;
83769;SDS011;73763;48.936;9.300;2023-12-20T11:20:22;6.53;;;1.70;;
83769;SDS011;73763;48.936;9.300;2023-12-20T11:22:52;8.00;;;1.90;;
83769;SDS011;73763;48.936;9.300;2023-12-20T11:25:18;6.77;;;1.70;;
83769;SDS011;73763;48.936;9.300;2023-12-20T11:27:46;5.20;;;1.60;;
83769;SDS011;73763;48.936;9.300;2023-12-20T11:30:47;6.80;;;1.63;;
83769;SDS011;73763;48.936;9.300;2023-12-20T11:33:22;7.60;;;1.70;;
83769;SDS011;73763;48.936;9.300;2023-12-20T11:35:57;6.18;;;1.85;;
83769;SDS011;73763;48.936;9.300;2023-12-20T11:38:23;4.28;;;1.30;;
83769;SDS011;73763;48.936;9.300;2023-12-20T11:40:49;7.03;;;1.90;;
83769;SDS011;73763;48.936;9.300;2023-12-20T11:46:07;6.82;;;2.15;;
83769;SDS011;73763;48.936;9.300;2023-12-20T11:48:37;6.45;;;1.70;;
83769;SDS011;73763;48.936;9.300;2023-12-20T11:51:13;7.18;;;2.00;;
83769;SDS011;73763;48.936;9.300;2023-12-20T11:53:41;5.43;;;2.00;;
83769;SDS011;73763;48.936;9.300;2023-12-20T11:56:08;7.22;;;1.92;;
83769;SDS011;73763;48.936;9.300;2023-12-20T11:58:34;6.28;;;2.00;;
83769;SDS011;73763;48.936;9.300;2023-12-20T12:01:00;6.05;;;2.15;;
83769;SDS011;73763;48.936;9.300;2023-12-20T12:03:25;6.60;;;2.10;;
83769;SDS011;73763;48.936;9.300;2023-12-20T12:05:51;7.83;;;2.90;;
83769;SDS011;73763;48.936;9.300;2023-12-20T12:08:17;8.00;;;2.20;;
83769;SDS011;73763;48.936;9.300;2023-12-20T12:10:43;5.97;;;2.00;;
83769;SDS011;73763;48.936;9.300;2023-12-20T12:13:09;7.60;;;2.05;;
83769;SDS011;73763;48.936;9.300;2023-12-20T12:15:36;7.20;;;1.90;;
83769;SDS011;73763;48.936;9.300;2023-12-20T12:18:02;9.17;;;2.20;;
83769;SDS011;73763;48.936;9.300;2023-12-20T12:20:27;7.38;;;1.95;;
83769;SDS011;73763;48.936;9.300;2023-12-20T12:23:03;6.20;;;2.00;;
83769;SDS011;73763;48.936;9.300;2023-12-20T12:25:31;9.70;;;2.30;;
83769;SDS011;73763;48.936;9.300;2023-12-20T12:27:58;7.50;;;2.03;;
83769;SDS011;73763;48.936;9.300;2023-12-20T12:30:24;8.57;;;2.10;;
83769;SDS011;73763;48.936;9.300;2023-12-20T12:32:50;6.97;;;2.95;;
83769;SDS011;73763;48.936;9.300;2023-12-20T12:35:16;9.73;;;2.30;;
83769;SDS011;73763;48.936;9.300;2023-12-20T12:37:42;7.55;;;2.40;;
83769;SDS011;73763;48.936;9.300;2023-12-20T12:40:11;5.50;;;2.15;;
83769;SDS011;73763;48.936;9.300;2023-12-20T12:42:38;7.32;;;2.50;;
83769;SDS011;73763;48.936;9.300;2023-12-20T12:45:05;8.50;;;2.50;;
83769;SDS011;73763;48.936;9.300;2023-12-20T12:47:31;6.32;;;2.72;;
83769;SDS011;73763;48.936;9.300;2023-12-20T12:49:57;9.40;;;2.20;;
83769;SDS011;73763;48.936;9.300;2023-12-20T12:52:22;7.00;;;2.30;;
83769;SDS011;73763;48.936;9.300;2023-12-20T12:54:48;7.23;;;2.50;;
83769;SDS011;73763;48.936;9.300;2023-12-20T12:57:14;8.52;;;2.30;;
83769;SDS011;73763;48.936;9.300;2023-12-20T12:59:40;5.35;;;2.13;;
83769;SDS011;73763;48.936;9.300;2023-12-20T13:02:06;5.75;;;2.20;;
83769;SDS011;73763;48.936;9.300;2023-12-20T13:04:31;7.87;;;2.10;;
83769;SDS011;73763;48.936;9.300;2023-12-20T13:06:57;7.30;;;2.00;;
83769;SDS011;73763;48.936;9.300;2023-12-20T13:09:22;7.33;;;1.90;;
83769;SDS011;73763;48.936;9.300;2023-12-20T13:11:48;7.45;;;2.80;;
83769;SDS011;73763;48.936;9.300;2023-12-20T13:14:14;6.07;;;1.90;;
83769;SDS011;73763;48.936;9.300;2023-12-20T13:16:41;8.02;;;1.95;;
83769;SDS011;73763;48.936;9.300;2023-12-20T13:19:07;8.90;;;2.25;;
83769;SDS011;73763;48.936;9.300;2023-12-20T13:21:33;6.73;;;2.13;;
83769;SDS011;73763;48.936;9.300;2023-12-20T13:23:58;5.57;;;2.08;;
83769;SDS011;73763;48.936;9.300;2023-12-20T13:26:24;7.63;;;2.00;;
83769;SDS011;73763;48.936;9.300;2023-12-20T13:28:49;5.82;;;2.25;;
83769;SDS011;73763;48.936;9.300;2023-12-20T13:31:15;7.83;;;2.00;;
83769;SDS011;73763;48.936;9.300;2023-12-20T13:33:40;9.98;;;2.30;;
83769;SDS011;73763;48.936;9.300;2023-12-20T13:36:06;7.67;;;2.40;;
83769;SDS011;73763;48.936;9.300;2023-12-20T13:38:32;7.88;;;2.22;;
83769;SDS011;73763;48.936;9.300;2023-12-20T13:40:57;13.33;;;2.77;;
83769;SDS011;73763;48.936;9.300;2023-12-20T13:43:23;8.32;;;2.47;;
83769;SDS011;73763;48.936;9.300;2023-12-20T13:45:48;10.43;;;2.27;;
83769;SDS011;73763;48.936;9.300;2023-12-20T13:48:14;6.63;;;1.95;;
83769;SDS011;73763;48.936;9.300;2023-12-20T13:50:39;6.47;;;2.00;;
83769;SDS011;73763;48.936;9.300;2023-12-20T13:53:05;6.50;;;1.92;;
83769;SDS011;73763;48.936;9.300;2023-12-20T13:55:30;4.90;;;1.77;;
83769;SDS011;73763;48.936;9.300;2023-12-20T13:57:56;7.13;;;2.20;;
83769;SDS011;73763;48.936;9.300;2023-12-20T14:00:22;6.60;;;2.17;;
83769;SDS011;73763;48.936;9.300;2023-12-20T14:02:48;7.82;;;2.20;;
83769;SDS011;73763;48.936;9.300;2023-12-20T14:05:13;7.50;;;2.25;;
83769;SDS011;73763;48.936;9.300;2023-12-20T14:07:39;8.63;;;2.30;;
83769;SDS011;73763;48.936;9.300;2023-12-20T14:10:05;8.68;;;2.40;;
83769;SDS011;73763;48.936;9.300;2023-12-20T14:12:30;7.20;;;2.33;;
83769;SDS011;73763;48.936;9.300;2023-12-20T14:14:56;9.17;;;2.70;;
83769;SDS011;73763;48.936;9.300;2023-12-20T14:17:22;7.03;;;2.10;;
83769;SDS011;73763;48.936;9.300;2023-12-20T14:19:47;8.68;;;2.47;;
83769;SDS011;73763;48.936;9.300;2023-12-20T14:22:13;8.47;;;2.60;;
83769;SDS011;73763;48.936;9.300;2023-12-20T14:24:38;8.48;;;2.90;;
83769;SDS011;73763;48.936;9.300;2023-12-20T14:27:04;7.33;;;2.40;;
83769;SDS011;73763;48.936;9.300;2023-12-20T14:29:29;10.68;;;2.70;;
83769;SDS011;73763;48.936;9.300;2023-12-20T14:31:55;15.40;;;3.27;;
83769;SDS011;73763;48.936;9.300;2023-12-20T14:34:20;7.27;;;2.60;;
83769;SDS011;73763;48.936;9.300;2023-12-20T14:36:46;5.77;;;2.37;;
83769;SDS011;73763;48.936;9.300;2023-12-20T14:39:11;7.23;;;2.50;;
83769;SDS011;73763;48.936;9.300;2023-12-20T14:41:37;8.50;;;2.42;;
83769;SDS011;73763;48.936;9.300;2023-12-20T14:44:02;9.33;;;2.70;;
83769;SDS011;73763;48.936;9.300;2023-12-20T14:46:28;6.57;;;2.50;;